createdAt,value
2022-11-07T00:01:51.765Z,4.59
2022-11-07T00:04:18.817Z,3.50
2022-11-07T00:06:46.832Z,4.72
2022-11-07T00:09:14.223Z,4.74
2022-11-07T00:11:41.174Z,4.15
2022-11-07T00:14:08.240Z,3.81
2022-11-07T00:16:35.592Z,4.61
2022-11-07T00:19:02.582Z,4.47
2022-11-07T00:21:29.543Z,4.94
2022-11-07T00:23:56.610Z,1.81
2022-11-07T00:26:23.593Z,5.00
2022-11-07T00:28:50.744Z,3.59
2022-11-07T00:31:18.722Z,3.36
2022-11-07T00:33:47.640Z,5.04
2022-11-07T00:36:26.727Z,4.61
2022-11-07T00:38:55.804Z,5.06
2022-11-07T00:41:23.221Z,4.69
2022-11-07T00:43:50.431Z,3.99
2022-11-07T00:46:18.371Z,5.14
2022-11-07T00:48:46.260Z,4.78
2022-11-07T00:51:22.953Z,2.82
2022-11-07T00:53:50.526Z,4.38
2022-11-07T00:56:21.483Z,0.09
2022-11-07T00:58:48.896Z,4.58
2022-11-07T01:01:20.415Z,5.24
2022-11-07T01:04:08.991Z,3.29
2022-11-07T01:06:38.752Z,5.17
2022-11-07T01:09:08.604Z,4.52
2022-11-07T01:11:38.145Z,3.51
2022-11-07T01:14:05.441Z,4.85
2022-11-07T01:16:35.811Z,3.80
2022-11-07T01:19:04.273Z,4.77
2022-11-07T01:21:31.470Z,5.36
2022-11-07T01:23:58.587Z,4.20
2022-11-07T01:26:25.552Z,4.99
2022-11-07T01:28:52.529Z,4.40
2022-11-07T01:31:19.554Z,2.64
2022-11-07T01:33:46.908Z,3.64
2022-11-07T01:36:16.887Z,5.36
2022-11-07T01:38:46.561Z,5.32
2022-11-07T01:41:21.583Z,3.07
2022-11-07T01:43:51.524Z,5.40
2022-11-07T01:46:19.471Z,5.46
2022-11-07T01:48:59.570Z,3.98
2022-11-07T01:51:28.592Z,3.11
2022-11-07T01:53:56.447Z,5.38
2022-11-07T01:56:28.334Z,3.36
2022-11-07T01:58:56.826Z,3.62
2022-11-07T02:01:24.092Z,5.73
2022-11-07T02:03:52.434Z,5.00
2022-11-07T02:06:36.044Z,5.34
2022-11-07T02:09:03.167Z,3.96
2022-11-07T02:11:30.295Z,0.50
2022-11-07T02:13:57.492Z,5.45
2022-11-07T02:16:24.487Z,4.78
2022-11-07T02:18:51.626Z,1.53
2022-11-07T02:21:45.225Z,5.85
2022-11-07T02:24:35.857Z,5.32
2022-11-07T02:27:08.523Z,5.88
2022-11-07T02:29:37.294Z,5.58
2022-11-07T02:32:10.383Z,4.75
2022-11-07T02:34:37.806Z,5.34
2022-11-07T02:37:10.535Z,4.89
2022-11-07T02:39:38.116Z,3.59
2022-11-07T02:42:07.005Z,6.08
2022-11-07T02:44:34.481Z,5.59
2022-11-07T02:47:01.759Z,4.41
2022-11-07T02:49:28.804Z,5.09
2022-11-07T02:51:55.901Z,4.86
2022-11-07T02:54:23.097Z,6.08
2022-11-07T02:56:50.489Z,1.96
2022-11-07T02:59:17.412Z,5.07
2022-11-07T03:01:44.718Z,4.65
2022-11-07T03:04:11.781Z,0.82
2022-11-07T03:06:38.709Z,1.00
2022-11-07T03:09:05.693Z,0.84
2022-11-07T03:11:32.903Z,5.19
2022-11-07T03:13:59.852Z,5.45
2022-11-07T03:16:26.839Z,5.17
2022-11-07T03:18:53.801Z,4.66
2022-11-07T03:21:20.778Z,3.02
2022-11-07T03:23:47.769Z,3.57
2022-11-07T03:26:15.819Z,0.66
2022-11-07T03:28:42.738Z,0.13
2022-11-07T03:31:09.840Z,4.87
2022-11-07T03:33:37.773Z,5.40
2022-11-07T03:36:05.264Z,4.18
2022-11-07T03:38:32.320Z,4.44
2022-11-07T03:40:59.300Z,5.91
2022-11-07T03:43:26.275Z,6.33
2022-11-07T03:45:53.200Z,4.83
2022-11-07T03:48:20.230Z,-0.13
2022-11-07T03:50:47.198Z,4.93
2022-11-07T03:53:14.296Z,6.09
2022-11-07T03:55:43.376Z,6.06
2022-11-07T03:58:10.347Z,5.86
2022-11-07T04:00:37.275Z,5.17
2022-11-07T04:03:04.816Z,1.83
2022-11-07T04:05:31.836Z,5.75
2022-11-07T04:07:58.741Z,5.38
2022-11-07T04:10:25.599Z,4.72
2022-11-07T04:13:12.366Z,6.32
2022-11-07T04:15:59.097Z,5.46
2022-11-07T04:18:27.004Z,5.29
2022-11-07T04:20:53.961Z,6.75
2022-11-07T04:23:21.257Z,5.76
2022-11-07T04:26:06.654Z,3.97
2022-11-07T04:28:33.563Z,3.65
2022-11-07T04:31:00.995Z,6.65
2022-11-07T04:33:27.980Z,5.83
2022-11-07T04:35:54.977Z,5.08
2022-11-07T04:38:22.081Z,5.73
2022-11-07T04:40:56.253Z,7.03
2022-11-07T04:43:25.498Z,7.06
2022-11-07T04:45:53.098Z,7.09
2022-11-07T04:48:20.101Z,4.15
2022-11-07T04:50:47.093Z,4.45
2022-11-07T04:53:16.509Z,7.15
2022-11-07T04:55:44.172Z,7.19
2022-11-07T04:58:11.480Z,4.42
2022-11-07T05:00:38.699Z,7.01
2022-11-07T05:03:05.857Z,3.98
2022-11-07T05:05:32.856Z,6.91
2022-11-07T05:07:59.890Z,5.97
2022-11-07T05:10:28.864Z,6.74
2022-11-07T05:12:56.943Z,7.36
2022-11-07T05:15:24.640Z,6.99
2022-11-07T05:17:51.668Z,6.40
2022-11-07T05:20:32.730Z,6.74
2022-11-07T05:23:22.346Z,7.45
2022-11-07T05:25:50.879Z,7.47
2022-11-07T05:28:30.049Z,6.69
2022-11-07T05:31:03.122Z,7.53
2022-11-07T05:33:30.140Z,6.43
2022-11-07T05:35:57.857Z,7.56
2022-11-07T05:38:25.993Z,5.44
2022-11-07T05:40:52.953Z,4.53
2022-11-07T05:43:19.947Z,5.36
2022-11-07T05:45:46.944Z,7.56
2022-11-07T05:48:14.517Z,7.60
2022-11-07T05:50:42.215Z,7.30
2022-11-07T05:53:09.338Z,4.29
2022-11-07T05:55:36.510Z,3.60
2022-11-07T05:58:12.032Z,6.91
2022-11-07T06:00:40.334Z,5.39
2022-11-07T06:03:08.139Z,-0.51
2022-11-07T06:05:35.187Z,7.39
2022-11-07T06:08:02.132Z,6.11
2022-11-07T06:10:29.165Z,6.85
2022-11-07T06:13:00.906Z,7.79
2022-11-07T06:15:29.342Z,7.82
2022-11-07T06:17:56.513Z,7.86
2022-11-07T06:20:23.475Z,5.99
2022-11-07T06:22:50.442Z,5.99
2022-11-07T06:25:17.358Z,2.28
2022-11-07T06:27:44.697Z,5.45
2022-11-07T06:30:12.193Z,7.09
2022-11-07T06:32:44.511Z,7.53
2022-11-07T06:35:13.043Z,4.71
2022-11-07T06:37:40.004Z,4.41
2022-11-07T06:40:07.620Z,6.00
2022-11-07T06:42:34.566Z,6.46
2022-11-07T06:45:01.496Z,5.78
2022-11-07T06:47:28.477Z,6.96
2022-11-07T06:49:55.798Z,5.42
2022-11-07T06:52:22.825Z,5.51
2022-11-07T06:54:49.736Z,6.51
2022-11-07T06:57:16.780Z,7.03
2022-11-07T06:59:47.657Z,8.21
2022-11-07T07:02:37.260Z,2.47
2022-11-07T07:05:05.756Z,5.29
2022-11-07T07:07:35.125Z,3.59
2022-11-07T07:10:02.046Z,6.32
2022-11-07T07:12:28.996Z,7.18
2022-11-07T07:14:55.949Z,6.28
2022-11-07T07:17:23.334Z,7.15
2022-11-07T07:19:50.290Z,4.43
2022-11-07T07:22:17.829Z,5.55
2022-11-07T07:24:45.165Z,5.15
2022-11-07T07:27:12.146Z,7.78
2022-11-07T07:29:39.124Z,7.08
2022-11-07T07:32:06.080Z,7.45
2022-11-07T07:34:32.918Z,8.44
2022-11-07T07:36:59.860Z,6.82
2022-11-07T07:39:28.408Z,7.09
2022-11-07T07:41:55.370Z,6.44
2022-11-07T07:44:22.321Z,8.25
2022-11-07T07:46:49.586Z,7.33
2022-11-07T07:49:16.571Z,7.26
2022-11-07T07:51:43.531Z,8.21
2022-11-07T07:54:14.110Z,7.71
2022-11-07T07:56:41.138Z,4.45
2022-11-07T07:59:08.084Z,8.92
2022-11-07T08:01:35.113Z,8.41
2022-11-07T08:04:02.925Z,9.02
2022-11-07T08:06:30.915Z,9.06
2022-11-07T08:08:57.877Z,6.76
2022-11-07T08:11:24.839Z,8.15
2022-11-07T08:13:51.798Z,7.77
2022-11-07T08:16:19.145Z,8.33
2022-11-07T08:18:46.052Z,9.08
2022-11-07T08:21:13.019Z,8.19
2022-11-07T08:23:39.959Z,8.51
2022-11-07T08:26:07.320Z,9.68
2022-11-07T08:28:36.134Z,5.92
2022-11-07T08:31:09.704Z,9.77
2022-11-07T08:33:37.406Z,9.82
2022-11-07T08:36:06.155Z,9.85
2022-11-07T08:38:35.068Z,9.87
2022-11-07T08:41:02.089Z,4.65
2022-11-07T08:43:29.627Z,9.96
2022-11-07T08:45:57.230Z,7.43
2022-11-07T08:48:24.591Z,10.01
2022-11-07T08:50:55.786Z,9.22
2022-11-07T08:53:24.282Z,9.36
2022-11-07T08:55:51.502Z,9.32
2022-11-07T08:58:19.657Z,10.06
2022-11-07T09:00:46.849Z,7.82
2022-11-07T09:06:01.588Z,8.43
2022-11-07T09:08:28.594Z,7.70
2022-11-07T09:10:55.585Z,9.64
2022-11-07T09:13:22.551Z,8.03
2022-11-07T09:15:51.276Z,7.86
2022-11-07T09:18:19.620Z,9.27
2022-11-07T09:20:46.807Z,9.55
2022-11-07T09:23:14.007Z,7.40
2022-11-07T09:25:41.255Z,9.66
2022-11-07T09:28:08.768Z,9.97
2022-11-07T09:30:35.857Z,6.66
2022-11-07T09:33:02.847Z,7.78
2022-11-07T09:35:29.811Z,9.78
2022-11-07T09:37:57.007Z,10.19
2022-11-07T09:40:24.907Z,10.35
2022-11-07T09:42:54.648Z,10.48
2022-11-07T09:45:21.638Z,9.31
2022-11-07T09:48:01.475Z,10.53
2022-11-07T09:50:42.524Z,10.55
2022-11-07T09:53:30.636Z,10.63
2022-11-07T09:56:04.450Z,8.77
2022-11-07T09:58:38.165Z,10.72
2022-11-07T10:01:10.556Z,10.83
2022-11-07T10:03:39.247Z,10.89
2022-11-07T10:06:32.369Z,10.94
2022-11-07T10:09:17.257Z,10.31
2022-11-07T10:11:54.542Z,9.08
2022-11-07T10:14:49.394Z,11.21
2022-11-07T10:17:28.713Z,11.20
2022-11-07T10:20:45.150Z,11.27
2022-11-07T10:23:24.780Z,10.51
2022-11-07T10:26:20.196Z,11.34
2022-11-07T10:29:18.278Z,11.27
2022-11-07T10:31:55.255Z,11.32
2022-11-07T10:34:31.885Z,11.22
2022-11-07T10:36:58.827Z,10.95
2022-11-07T10:39:25.939Z,11.27
2022-11-07T10:42:04.386Z,11.26
2022-11-07T10:44:32.265Z,10.88
2022-11-07T10:46:59.252Z,10.33
2022-11-07T10:49:32.257Z,11.16
2022-11-07T10:52:17.137Z,11.19
2022-11-07T10:54:45.343Z,11.25
2022-11-07T10:57:17.020Z,11.23
2022-11-07T10:59:52.774Z,11.24
2022-11-07T11:02:46.296Z,9.52
2022-11-07T11:05:43.628Z,9.99
2022-11-07T11:08:18.658Z,10.27
2022-11-07T11:10:47.165Z,9.37
2022-11-07T11:13:28.640Z,9.33
2022-11-07T11:16:08.724Z,10.04
2022-11-07T11:18:37.084Z,7.63
2022-11-07T11:21:06.345Z,11.23
2022-11-07T11:23:37.538Z,6.99
2022-11-07T11:26:14.488Z,10.62
2022-11-07T11:29:06.371Z,11.29
2022-11-07T11:31:37.522Z,10.64
2022-11-07T11:34:15.949Z,11.46
2022-11-07T11:36:51.903Z,11.32
2022-11-07T11:39:29.915Z,10.75
2022-11-07T11:42:00.741Z,9.87
2022-11-07T11:44:35.547Z,11.42
2022-11-07T11:47:16.745Z,11.39
2022-11-07T11:50:01.131Z,9.03
2022-11-07T11:52:32.078Z,10.20
2022-11-07T11:55:00.773Z,10.71
2022-11-07T11:57:49.193Z,11.08
2022-11-07T12:00:19.228Z,9.45
2022-11-07T12:02:55.176Z,11.51
2022-11-07T12:05:46.699Z,11.20
2022-11-07T12:08:16.366Z,11.22
2022-11-07T12:11:14.368Z,11.26
2022-11-07T12:14:02.815Z,11.35
2022-11-07T12:16:55.642Z,11.11
2022-11-07T12:19:48.818Z,9.79
2022-11-07T12:22:45.295Z,11.32
2022-11-07T12:25:39.163Z,11.20
2022-11-07T12:28:21.309Z,11.22
2022-11-07T12:30:57.716Z,11.14
2022-11-07T12:33:48.052Z,9.77
2022-11-07T12:36:35.107Z,11.07
2022-11-07T12:39:28.266Z,11.10
2022-11-07T12:42:05.845Z,9.03
2022-11-07T12:44:44.964Z,11.17
2022-11-07T12:47:27.244Z,11.33
2022-11-07T12:50:14.438Z,11.38
2022-11-07T12:52:41.363Z,11.51
2022-11-07T12:55:23.927Z,11.23
2022-11-07T12:57:54.811Z,7.61
2022-11-07T13:00:29.198Z,11.54
2022-11-07T13:03:17.981Z,11.43
2022-11-07T13:06:06.518Z,11.30
2022-11-07T13:08:45.685Z,11.23
2022-11-07T13:11:26.182Z,11.22
2022-11-07T13:14:09.616Z,11.04
2022-11-07T13:16:37.724Z,11.02
2022-11-07T13:19:21.473Z,10.15
2022-11-07T13:22:03.094Z,10.04
2022-11-07T13:24:31.604Z,9.48
2022-11-07T13:27:00.006Z,11.26
2022-11-07T13:29:36.065Z,10.30
2022-11-07T13:32:12.411Z,2.74
2022-11-07T13:34:49.522Z,11.09
2022-11-07T13:37:32.730Z,10.15
2022-11-07T13:40:11.637Z,10.99
2022-11-07T13:42:41.862Z,10.95
2022-11-07T13:45:32.359Z,10.04
2022-11-07T13:48:03.739Z,10.94
2022-11-07T13:50:40.861Z,9.60
2022-11-07T13:53:30.957Z,10.74
2022-11-07T13:56:03.970Z,9.53
2022-11-07T13:58:34.818Z,10.73
2022-11-07T14:01:10.754Z,9.45
2022-11-07T14:03:38.461Z,10.72
2022-11-07T14:06:06.603Z,10.62
2022-11-07T14:08:40.332Z,10.60
2022-11-07T14:11:23.477Z,10.59
2022-11-07T14:13:55.142Z,10.16
2022-11-07T14:16:27.655Z,10.58
2022-11-07T14:19:01.644Z,10.57
2022-11-07T14:21:32.819Z,10.53
2022-11-07T14:24:00.158Z,10.50
2022-11-07T14:26:34.408Z,7.99
2022-11-07T14:29:03.151Z,9.49
2022-11-07T14:31:38.376Z,10.47
2022-11-07T14:34:14.305Z,10.36
2022-11-07T14:36:52.920Z,8.15
2022-11-07T14:39:22.829Z,10.44
2022-11-07T14:41:51.200Z,9.94
2022-11-07T14:44:28.521Z,10.38
2022-11-07T14:47:04.017Z,10.27
2022-11-07T14:49:41.875Z,10.35
2022-11-07T14:52:28.046Z,7.34
2022-11-07T14:55:07.101Z,9.71
2022-11-07T14:57:37.186Z,9.41
2022-11-07T15:00:17.614Z,9.31
2022-11-07T15:02:47.642Z,10.29
2022-11-07T15:05:36.139Z,10.25
2022-11-07T15:08:03.130Z,8.13
2022-11-07T15:10:36.395Z,8.73
2022-11-07T15:13:06.347Z,9.42
2022-11-07T15:15:36.246Z,10.08
2022-11-07T15:18:07.779Z,9.06
2022-11-07T15:20:38.521Z,10.12
2022-11-07T15:23:14.641Z,10.03
2022-11-07T15:25:52.498Z,9.77
2022-11-07T15:28:28.440Z,10.11
2022-11-07T15:30:58.333Z,10.08
2022-11-07T15:33:27.062Z,9.88
2022-11-07T15:35:57.875Z,10.03
2022-11-07T15:38:26.598Z,10.11
2022-11-07T15:40:53.819Z,10.04
2022-11-07T15:43:21.428Z,7.10
2022-11-07T15:45:51.289Z,9.73
2022-11-07T15:48:21.157Z,10.10
2022-11-07T15:50:50.140Z,10.15
2022-11-07T15:53:26.361Z,10.07
2022-11-07T15:56:01.717Z,7.90
2022-11-07T15:58:30.485Z,9.96
2022-11-07T16:00:59.075Z,9.96
2022-11-07T16:03:27.641Z,7.99
2022-11-07T16:05:58.545Z,10.00
2022-11-07T16:08:25.960Z,9.28
2022-11-07T16:11:01.808Z,-0.35
2022-11-07T16:13:29.335Z,7.66
2022-11-07T16:15:59.874Z,8.43
2022-11-07T16:18:27.768Z,5.37
2022-11-07T16:20:54.707Z,8.14
2022-11-07T16:23:22.063Z,9.63
2022-11-07T16:25:51.366Z,8.96
2022-11-07T16:28:21.305Z,10.07
2022-11-07T16:30:48.269Z,6.72
2022-11-07T16:33:15.216Z,8.07
2022-11-07T16:35:43.387Z,8.62
2022-11-07T16:38:16.069Z,9.23
2022-11-07T16:40:43.987Z,10.00
2022-11-07T16:43:10.968Z,4.60
2022-11-07T16:45:43.802Z,10.00
2022-11-07T16:48:20.737Z,9.36
2022-11-07T16:50:48.150Z,7.56
2022-11-07T16:53:15.889Z,7.57
2022-11-07T16:55:50.788Z,9.60
2022-11-07T16:58:39.429Z,9.93
2022-11-07T17:01:06.815Z,8.53
2022-11-07T17:03:34.232Z,9.89
2022-11-07T17:06:02.879Z,9.11
2022-11-07T17:08:41.528Z,8.25
2022-11-07T17:11:08.829Z,7.74
2022-11-07T17:13:35.760Z,7.87
2022-11-07T17:16:02.767Z,7.53
2022-11-07T17:18:29.674Z,9.54
2022-11-07T17:20:57.253Z,9.89
2022-11-07T17:23:29.862Z,6.97
2022-11-07T17:26:00.497Z,9.92
2022-11-07T17:28:27.428Z,8.83
2022-11-07T17:30:54.340Z,4.25
2022-11-07T17:33:21.399Z,9.96
2022-11-07T17:35:54.128Z,8.95
2022-11-07T17:38:21.252Z,7.39
2022-11-07T17:40:48.343Z,8.68
2022-11-07T17:43:15.290Z,8.99
2022-11-07T17:45:42.451Z,9.84
2022-11-07T17:48:10.933Z,9.81
2022-11-07T17:50:38.469Z,9.84
2022-11-07T17:53:05.902Z,9.45
2022-11-07T17:55:32.847Z,8.85
2022-11-07T17:57:59.874Z,9.44
2022-11-07T18:00:28.074Z,8.87
2022-11-07T18:02:55.462Z,8.59
2022-11-07T18:05:26.437Z,8.59
2022-11-07T18:07:55.795Z,8.47
2022-11-07T18:10:22.725Z,7.45
2022-11-07T18:12:49.809Z,8.34
2022-11-07T18:15:17.000Z,9.78
2022-11-07T18:17:44.363Z,4.53
2022-11-07T18:20:11.954Z,9.50
2022-11-07T18:22:40.699Z,9.81
2022-11-07T18:25:09.242Z,8.63
2022-11-07T18:27:36.770Z,8.25
2022-11-07T18:30:05.720Z,7.61
2022-11-07T18:32:36.208Z,7.38
2022-11-07T18:35:05.180Z,9.85
2022-11-07T18:37:32.534Z,8.29
2022-11-07T18:39:59.453Z,4.40
2022-11-07T18:42:26.397Z,8.86
2022-11-07T18:44:53.483Z,4.09
2022-11-07T18:47:21.174Z,8.44
2022-11-07T18:49:51.495Z,8.64
2022-11-07T18:52:21.205Z,8.55
2022-11-07T18:54:48.117Z,9.16
2022-11-07T18:57:17.036Z,9.40
2022-11-07T18:59:44.085Z,6.94
2022-11-07T19:02:11.183Z,8.32
2022-11-07T19:04:38.215Z,8.20
2022-11-07T19:07:05.151Z,8.62
2022-11-07T19:09:33.711Z,8.01
2022-11-07T19:12:01.537Z,9.15
2022-11-07T19:14:30.161Z,9.01
2022-11-07T19:16:57.889Z,7.34
2022-11-07T19:19:25.312Z,8.66
2022-11-07T19:21:52.656Z,6.74
2022-11-07T19:24:19.926Z,7.28
2022-11-07T19:26:47.378Z,6.33
2022-11-07T19:29:14.336Z,7.40
2022-11-07T19:31:41.290Z,6.40
2022-11-07T19:34:08.422Z,0.18
2022-11-07T19:36:37.320Z,8.06
2022-11-07T19:39:04.803Z,5.75
2022-11-07T19:41:31.781Z,5.54
2022-11-07T19:44:02.010Z,7.42
2022-11-07T19:46:28.997Z,6.62
2022-11-07T19:48:56.697Z,6.51
2022-11-07T19:51:24.500Z,8.68
2022-11-07T19:53:59.490Z,8.30
2022-11-07T19:56:28.593Z,8.74
2022-11-07T19:58:55.776Z,2.09
2022-11-07T20:01:27.162Z,8.85
2022-11-07T20:03:55.752Z,8.88
2022-11-07T20:06:28.877Z,8.60
2022-11-07T20:08:55.853Z,7.86
2022-11-07T20:11:25.250Z,6.76
2022-11-07T20:13:54.742Z,8.60
2022-11-07T20:16:23.717Z,6.27
2022-11-07T20:18:51.177Z,8.91
2022-11-07T20:21:21.963Z,7.05
2022-11-07T20:23:49.879Z,8.71
2022-11-07T20:26:20.082Z,7.37
2022-11-07T20:28:49.851Z,7.27
2022-11-07T20:31:23.041Z,8.45
2022-11-07T20:33:50.234Z,8.44
2022-11-07T20:36:18.557Z,8.36
2022-11-07T20:38:46.187Z,6.95
2022-11-07T20:41:13.924Z,5.36
2022-11-07T20:43:41.418Z,8.09
2022-11-07T20:46:15.308Z,8.08
2022-11-07T20:48:43.247Z,8.05
2022-11-07T20:51:15.095Z,8.01
2022-11-07T20:53:49.502Z,6.75
2022-11-07T20:56:18.215Z,7.54
2022-11-07T20:58:45.654Z,7.45
2022-11-07T21:01:21.600Z,7.84
2022-11-07T21:03:49.087Z,7.18
2022-11-07T21:06:16.738Z,7.57
2022-11-07T21:08:46.868Z,-1.49
2022-11-07T21:11:15.011Z,6.60
2022-11-07T21:13:46.601Z,7.78
2022-11-07T21:16:18.944Z,7.41
2022-11-07T21:18:45.927Z,6.87
2022-11-07T21:21:19.075Z,7.72
2022-11-07T21:23:47.121Z,7.75
2022-11-07T21:26:22.660Z,5.82
2022-11-07T21:28:50.590Z,6.17
2022-11-07T21:31:24.001Z,7.42
2022-11-07T21:33:52.219Z,3.92
2022-11-07T21:36:22.084Z,-1.84
2022-11-07T21:38:49.245Z,7.52
2022-11-07T21:41:17.171Z,7.27
2022-11-07T21:43:44.442Z,6.00
2022-11-07T21:46:18.014Z,7.14
2022-11-07T21:48:46.271Z,6.15
2022-11-07T21:51:19.722Z,-0.18
2022-11-07T21:53:48.531Z,-0.64
2022-11-07T21:56:25.452Z,5.66
2022-11-07T21:58:54.821Z,7.38
2022-11-07T22:01:22.539Z,4.02
2022-11-07T22:04:06.195Z,4.69
2022-11-07T22:06:37.410Z,7.30
2022-11-07T22:09:06.492Z,7.34
2022-11-07T22:11:33.674Z,7.32
2022-11-07T22:14:01.124Z,5.48
2022-11-07T22:16:28.242Z,7.25
2022-11-07T22:18:55.471Z,6.79
2022-11-07T22:21:23.605Z,6.83
2022-11-07T22:23:51.400Z,1.18
2022-11-07T22:26:27.048Z,6.08
2022-11-07T22:28:54.757Z,7.18
2022-11-07T22:31:32.647Z,7.16
2022-11-07T22:34:01.110Z,7.14
2022-11-07T22:36:29.109Z,7.14
2022-11-07T22:38:58.153Z,7.17
2022-11-07T22:41:27.432Z,3.42
2022-11-07T22:43:55.372Z,6.96
2022-11-07T22:46:24.857Z,7.17
2022-11-07T22:48:52.812Z,6.31
2022-11-07T22:51:25.274Z,6.84
2022-11-07T22:54:03.047Z,6.24
2022-11-07T22:56:30.907Z,7.33
2022-11-07T22:58:57.992Z,2.58
2022-11-07T23:01:34.441Z,3.95
2022-11-07T23:04:02.052Z,7.26
2022-11-07T23:06:30.267Z,7.28
2022-11-07T23:08:58.362Z,5.45
2022-11-07T23:11:48.277Z,7.32
2022-11-07T23:14:20.952Z,7.28
2022-11-07T23:16:50.264Z,7.36
2022-11-07T23:19:20.024Z,0.60
2022-11-07T23:21:47.270Z,5.99
2022-11-07T23:24:14.569Z,5.43
2022-11-07T23:26:41.881Z,7.32
2022-11-07T23:29:20.796Z,4.49
2022-11-07T23:31:50.077Z,7.73
2022-11-07T23:34:18.448Z,7.03
2022-11-07T23:36:50.143Z,7.49
2022-11-07T23:39:20.551Z,4.48
2022-11-07T23:41:47.684Z,6.30
2022-11-07T23:44:15.976Z,6.24
2022-11-07T23:47:01.779Z,3.37
2022-11-07T23:49:54.964Z,7.45
2022-11-07T23:52:22.138Z,7.85
2022-11-07T23:55:07.904Z,7.88
2022-11-07T23:57:56.557Z,5.49
